Date,TemperatureHighF,TemperatureAvgF,TemperatureLowF,DewpointHighF,DewpointAvgF,DewpointLowF,HumidityHigh,HumidityAvg,HumidityLow,PressureMaxIn,PressureMinIn,WindSpeedMaxMPH,WindSpeedAvgMPH,GustSpeedMaxMPH,PrecipitationSumIn
2012-12-1,64.8,47.9,38.1,53.2,44.9,37.6,98,90,59,30.25,30.17,3,0,0,0.00
2012-12-2,67.3,54.1,42.6,59.7,51.8,42.1,98,93,68,30.25,30.09,4,1,0,0.00
2012-12-3,74.3,61.3,54.0,64.0,58.0,53.4,98,90,63,30.15,30.07,4,1,0,0.00
2012-12-4,70.9,59.0,51.4,64.5,57.3,50.9,98,95,75,30.17,30.02,4,0,0,0.00
2012-12-5,67.1,59.0,46.6,66.5,58.4,46.1,98,98,92,30.04,29.96,5,2,0,0.00
2012-12-6,53.8,45.9,39.6,46.3,39.9,36.0,98,81,60,30.17,30.03,8,2,0,0.00
2012-12-7,60.4,51.2,45.7,56.5,48.7,39.9,98,92,79,30.05,29.84,5,1,0,0.05
2012-12-8,64.8,55.4,51.6,62.9,54.7,51.1,98,98,90,29.90,29.80,4,1,0,0.01
2012-12-9,72.1,62.1,54.7,70.8,61.5,54.1,98,98,92,29.99,29.82,5,1,0,0.01
2012-12-10,70.3,65.9,63.5,68.5,65.1,62.9,98,97,91,29.82,29.52,7,2,0,0.00
2012-12-11,63.5,57.6,50.4,62.9,51.5,44.0,98,81,59,29.97,29.56,8,3,0,0.00
2012-12-12,50.4,45.0,38.3,46.2,41.0,36.5,98,86,70,30.16,29.97,10,4,0,0.37
2012-12-13,50.5,41.3,35.1,44.0,39.4,34.6,98,93,77,30.22,30.11,8,3,0,0.11
2012-12-14,57.2,39.5,30.0,41.7,34.3,28.5,98,85,36,30.21,30.07,3,1,0,0.00
2012-12-15,57.9,46.2,32.7,44.1,38.2,32.2,98,76,44,30.11,29.93,3,1,0,0.00
2012-12-16,58.1,54.3,49.8,57.5,53.3,44.3,98,97,76,29.92,29.74,3,1,0,0.09
2012-12-17,62.2,58.2,56.3,61.6,57.6,55.7,98,98,98,29.73,29.43,5,2,0,0.41
2012-12-18,61.2,54.5,40.1,59.7,49.4,38.9,98,84,56,29.75,29.49,7,2,0,0.00
2012-12-19,66.4,48.3,34.9,48.0,41.6,34.4,98,81,43,29.96,29.73,4,1,0,0.00
2012-12-20,63.0,51.1,41.7,62.4,50.3,41.2,98,97,88,30.00,29.30,11,3,0,0.31
2012-12-21,55.4,43.6,37.2,54.8,34.7,26.2,98,72,53,29.64,29.33,10,5,0,0.00
2012-12-22,50.4,40.0,32.4,29.4,26.6,22.7,77,59,40,29.93,29.63,10,3,0,0.00
2012-12-23,54.7,41.4,27.7,34.6,28.5,22.3,98,62,37,29.99,29.85,3,1,0,0.00
2012-12-24,54.0,48.6,43.2,49.9,44.2,35.3,98,85,65,29.88,29.73,5,1,0,0.00
2012-12-25,61.7,52.4,45.0,54.8,49.0,44.5,98,89,61,29.93,29.76,5,1,0,0.00
2012-12-26,51.4,45.3,39.7,50.9,44.8,39.2,98,98,98,29.88,29.25,11,3,0,1.83
2012-12-27,49.6,40.9,34.2,39.6,36.5,32.9,98,85,64,29.90,29.46,7,3,0,0.00
2012-12-28,46.9,37.9,25.9,40.7,33.8,25.4,98,86,62,30.03,29.84,4,1,0,0.00
2012-12-29,52.3,43.4,38.7,50.3,40.7,34.0,98,91,71,29.82,29.48,7,2,0,0.37
2012-12-30,46.2,37.5,31.6,32.3,27.4,24.5,84,68,45,30.23,29.79,8,2,0,0.00
2012-12-31,54.1,39.8,25.5,34.1,30.2,25.0,98,72,41,30.22,29.94,6,2,0,0.00